Time;durP1;ratioP1;P1;durP2;ratioP2;P2;SDS_P1;SDS_P2;PMS_P1;PMS_P2;Temp;Humidity;BMP_temperature;BMP_pressure;BME280_temperature;BME280_humidity;BME280_pressure;Samples;Min_cycle;Max_cycle;Signal;HPM_P1;HPM_P2
2023/09/10 00:02:57;;;;;;;14.80;9.70;;;21.80;99.90;;;;;;10211982;29;20256;-79
2023/09/10 00:08:00;;;;;;;10.33;9.53;;;21.80;99.90;;;;;;10297713;23;20218;-80
2023/09/10 00:13:04;;;;;;;10.43;9.40;;;21.80;99.90;;;;;;10405951;28;20582;-80
2023/09/10 00:18:06;;;;;;;21.00;9.87;;;21.80;99.90;;;;;;10425841;28;20218;-78
2023/09/10 00:23:08;;;;;;;10.40;9.50;;;21.80;99.90;;;;;;10425925;28;20203;-80
2023/09/10 00:28:12;;;;;;;10.40;9.53;;;21.70;99.90;;;;;;10426537;28;20245;-80
2023/09/10 00:33:14;;;;;;;10.20;9.30;;;21.70;99.90;;;;;;10409627;28;20205;-80
2023/09/10 00:38:16;;;;;;;9.90;9.00;;;21.70;99.90;;;;;;10411187;28;20207;-80
2023/09/10 00:43:19;;;;;;;10.23;9.33;;;21.70;99.90;;;;;;10394496;28;20199;-80
2023/09/10 00:48:21;;;;;;;12.10;10.40;;;21.70;99.90;;;;;;10425714;28;20276;-80
2023/09/10 00:53:24;;;;;;;13.40;9.50;;;21.70;99.90;;;;;;10433818;28;20769;-80
2023/09/10 00:58:28;;;;;;;10.07;9.17;;;21.70;99.90;;;;;;10418809;28;20234;-80
2023/09/10 01:03:30;;;;;;;10.97;9.57;;;21.70;99.90;;;;;;10443416;28;20198;-79
2023/09/10 01:08:32;;;;;;;10.37;9.33;;;21.60;99.90;;;;;;10427920;28;20226;-80
2023/09/10 01:13:42;;;;;;;10.70;9.70;;;21.60;99.90;;;;;;10406911;28;20201;-80
2023/09/10 01:18:47;;;;;;;12.23;8.90;;;21.60;99.90;;;;;;10425311;28;20218;-81
2023/09/10 01:23:54;;;;;;;10.87;9.73;;;21.60;99.90;;;;;;10423049;28;20218;-80
2023/09/10 01:28:57;;;;;;;11.57;10.37;;;21.60;99.90;;;;;;10422621;28;20234;-80
2023/09/10 01:34:04;;;;;;;13.80;10.23;;;21.50;99.90;;;;;;10424223;28;20205;-80
2023/09/10 01:39:12;;;;;;;10.83;9.77;;;21.50;99.90;;;;;;10406394;28;20248;-80
2023/09/10 01:44:17;;;;;;;10.20;9.30;;;21.50;99.90;;;;;;10424626;28;20210;-81
2023/09/10 01:49:20;;;;;;;10.20;9.20;;;21.50;99.90;;;;;;10424607;28;20237;-80
2023/09/10 01:54:23;;;;;;;9.90;9.00;;;21.50;99.90;;;;;;10449044;28;20203;-80
2023/09/10 01:59:26;;;;;;;11.67;10.53;;;21.50;99.90;;;;;;10432365;28;20248;-79
2023/09/10 02:04:28;;;;;;;10.83;9.73;;;21.40;99.90;;;;;;10402203;28;20195;-80
2023/09/10 02:09:30;;;;;;;9.93;8.93;;;21.40;99.90;;;;;;10393108;28;20214;-79
2023/09/10 02:14:34;;;;;;;10.63;9.70;;;21.40;99.90;;;;;;10417525;28;20201;-80
2023/09/10 02:19:36;;;;;;;9.80;9.00;;;21.30;99.90;;;;;;10426174;28;20213;-80
2023/09/10 02:24:39;;;;;;;10.57;9.47;;;21.30;99.90;;;;;;10391467;28;20198;-80
2023/09/10 02:29:42;;;;;;;11.63;9.50;;;21.30;99.90;;;;;;10428786;28;20229;-80
2023/09/10 02:34:44;;;;;;;9.63;8.67;;;21.20;99.90;;;;;;10404655;28;20198;-80
2023/09/10 02:39:46;;;;;;;10.83;9.80;;;21.20;99.90;;;;;;10417845;28;20210;-80
2023/09/10 02:44:50;;;;;;;10.70;9.47;;;21.20;99.90;;;;;;10403612;28;20229;-80
2023/09/10 02:49:54;;;;;;;9.50;8.70;;;21.20;99.90;;;;;;10400203;28;20226;-79
2023/09/10 02:54:56;;;;;;;10.67;9.77;;;21.10;99.90;;;;;;10418416;28;20197;-80
2023/09/10 02:59:59;;;;;;;9.70;8.80;;;21.10;99.90;;;;;;10416466;28;20310;-80
2023/09/10 03:05:02;;;;;;;10.07;9.20;;;21.00;99.90;;;;;;10386344;28;20234;-80
2023/09/10 03:10:05;;;;;;;11.07;9.60;;;21.00;99.90;;;;;;10398527;28;20972;-80
2023/09/10 03:15:09;;;;;;;12.90;9.57;;;21.00;99.90;;;;;;10412837;28;20199;-80
2023/09/10 03:20:12;;;;;;;11.00;9.47;;;20.90;99.90;;;;;;10396263;28;20213;-80
2023/09/10 03:25:15;;;;;;;16.40;10.57;;;20.90;99.90;;;;;;10402809;28;20213;-80
2023/09/10 03:30:19;;;;;;;13.60;11.53;;;20.90;99.90;;;;;;10402482;28;20245;-80
2023/09/10 03:35:21;;;;;;;10.53;9.70;;;20.90;99.90;;;;;;10422709;28;20248;-80
2023/09/10 03:40:23;;;;;;;11.83;10.73;;;20.90;99.90;;;;;;10401044;28;20211;-80
2023/09/10 03:45:27;;;;;;;11.47;9.63;;;20.80;99.90;;;;;;10390203;28;20270;-80
2023/09/10 03:50:29;;;;;;;10.63;9.60;;;20.80;99.90;;;;;;10403801;28;20226;-80
2023/09/10 03:55:31;;;;;;;11.80;10.07;;;20.70;99.90;;;;;;10409639;28;20195;-80
2023/09/10 04:00:35;;;;;;;11.90;9.20;;;20.70;99.90;;;;;;10407649;28;20268;-79
2023/09/10 04:05:37;;;;;;;10.80;9.83;;;20.70;99.90;;;;;;10421969;28;20672;-80
2023/09/10 04:10:39;;;;;;;12.80;10.30;;;20.70;99.90;;;;;;10398826;28;20241;-79
2023/09/10 04:15:43;;;;;;;11.40;10.20;;;20.60;99.90;;;;;;10399479;28;20290;-80
2023/09/10 04:20:45;;;;;;;11.07;9.97;;;20.60;99.90;;;;;;10403191;28;20298;-80
2023/09/10 04:25:47;;;;;;;12.13;10.97;;;20.50;99.90;;;;;;10402519;28;20222;-80
2023/09/10 04:30:50;;;;;;;20.13;11.03;;;20.50;99.90;;;;;;10403230;28;20234;-79
2023/09/10 04:35:57;;;;;;;11.67;10.67;;;20.50;99.90;;;;;;10402450;28;20198;-80
2023/09/10 04:40:59;;;;;;;11.63;10.60;;;20.50;99.90;;;;;;10401800;28;20273;-80
2023/09/10 04:46:03;;;;;;;11.30;10.30;;;20.50;99.90;;;;;;10420126;28;20203;-80
2023/09/10 04:51:05;;;;;;;11.30;10.40;;;20.50;99.90;;;;;;10404059;28;20234;-80
2023/09/10 04:56:08;;;;;;;10.00;9.20;;;20.50;99.90;;;;;;10405991;28;20261;-80
2023/09/10 05:01:11;;;;;;;11.80;10.50;;;20.40;99.90;;;;;;10423301;28;20227;-80
2023/09/10 05:06:14;;;;;;;13.03;10.37;;;20.40;99.90;;;;;;10405790;28;20218;-80
2023/09/10 05:11:18;;;;;;;14.07;10.60;;;20.40;99.90;;;;;;10405151;28;20229;-80
2023/09/10 05:16:21;;;;;;;11.93;10.63;;;20.40;99.90;;;;;;10422273;28;20660;-80
2023/09/10 05:21:24;;;;;;;13.57;10.93;;;20.40;99.90;;;;;;10401540;28;20218;-80
2023/09/10 05:26:26;;;;;;;11.40;10.50;;;20.40;99.90;;;;;;10399338;28;20671;-80
2023/09/10 05:31:29;;;;;;;11.77;10.70;;;20.40;99.90;;;;;;10399893;28;20286;-80
2023/09/10 05:36:32;;;;;;;12.17;11.10;;;20.50;99.90;;;;;;10404276;28;20198;-80
2023/09/10 05:41:35;;;;;;;11.40;10.30;;;20.50;99.90;;;;;;10403346;28;20219;-80
2023/09/10 05:46:38;;;;;;;12.77;11.57;;;20.50;99.90;;;;;;10404670;28;20284;-80
2023/09/10 05:51:41;;;;;;;12.17;11.17;;;20.50;99.90;;;;;;10421070;28;20273;-80
2023/09/10 05:56:43;;;;;;;13.27;11.73;;;20.50;99.90;;;;;;10420989;28;20706;-80
2023/09/10 06:01:46;;;;;;;13.23;11.60;;;20.60;99.90;;;;;;10403449;28;20225;-80
2023/09/10 06:06:49;;;;;;;12.13;10.93;;;20.60;99.90;;;;;;10404352;28;20198;-79
2023/09/10 06:11:51;;;;;;;13.87;12.57;;;20.70;99.90;;;;;;10331116;23;20233;-79
2023/09/10 06:16:54;;;;;;;12.10;10.87;;;20.70;99.90;;;;;;10351325;28;20197;-80
2023/09/10 06:21:57;;;;;;;13.10;11.80;;;20.70;99.90;;;;;;10318810;28;20225;-80
2023/09/10 06:26:59;;;;;;;13.67;12.27;;;20.80;99.90;;;;;;10315257;28;20277;-80
2023/09/10 06:32:03;;;;;;;12.00;10.80;;;20.90;99.90;;;;;;10309642;28;20240;-80
2023/09/10 06:37:06;;;;;;;14.60;11.70;;;20.90;99.90;;;;;;10294710;28;20206;-80
2023/09/10 06:42:10;;;;;;;11.90;10.77;;;20.90;99.90;;;;;;10245051;28;20217;-80
2023/09/10 06:47:18;;;;;;;12.73;11.53;;;21.00;99.90;;;;;;10314468;28;20643;-80
2023/09/10 06:52:20;;;;;;;12.00;10.80;;;21.10;99.90;;;;;;10256366;28;20232;-80
2023/09/10 06:57:22;;;;;;;11.33;10.23;;;21.10;99.90;;;;;;10317662;28;20255;-80
2023/09/10 07:02:26;;;;;;;12.70;10.60;;;21.20;99.90;;;;;;10317096;28;20225;-80
2023/09/10 07:07:28;;;;;;;11.57;10.43;;;21.20;99.90;;;;;;10321236;28;20209;-80
2023/09/10 07:12:30;;;;;;;12.57;11.37;;;21.30;99.90;;;;;;10254154;28;20213;-80
2023/09/10 07:17:33;;;;;;;14.30;12.80;;;21.40;99.90;;;;;;10252618;28;20204;-80
2023/09/10 07:22:36;;;;;;;11.60;10.67;;;21.50;99.90;;;;;;10249950;28;20280;-79
2023/09/10 07:27:38;;;;;;;12.80;11.60;;;21.50;99.90;;;;;;10251220;28;20204;-80
2023/09/10 07:32:41;;;;;;;17.43;12.83;;;21.60;99.90;;;;;;10253748;28;20587;-80
2023/09/10 07:37:43;;;;;;;12.30;11.10;;;21.70;99.90;;;;;;10251342;29;20565;-80
2023/09/10 07:42:46;;;;;;;14.77;11.50;;;21.80;99.90;;;;;;10254862;28;20221;-80
2023/09/10 07:47:49;;;;;;;14.80;13.50;;;21.80;99.90;;;;;;10321407;28;20276;-80
2023/09/10 07:52:51;;;;;;;13.87;12.67;;;21.90;99.90;;;;;;10254211;28;20609;-80
2023/09/10 07:57:53;;;;;;;14.80;13.43;;;22.00;99.90;;;;;;10249842;28;20568;-80
2023/09/10 08:02:59;;;;;;;13.30;12.07;;;22.10;99.90;;;;;;10249997;28;20567;-80
2023/09/10 08:08:03;;;;;;;13.70;12.40;;;22.20;99.90;;;;;;10252288;28;20265;-80
2023/09/10 08:13:05;;;;;;;12.33;11.23;;;22.30;99.90;;;;;;10265871;28;20302;-80
2023/09/10 08:18:11;;;;;;;16.87;13.13;;;22.40;99.90;;;;;;10253802;28;20202;-80
2023/09/10 08:23:13;;;;;;;12.83;11.70;;;22.50;99.90;;;;;;10315790;28;20222;-80
2023/09/10 08:28:15;;;;;;;12.93;11.77;;;22.50;99.90;;;;;;10249603;28;20346;-78
2023/09/10 08:33:19;;;;;;;13.27;12.00;;;22.60;99.90;;;;;;10248921;28;20225;-79
2023/09/10 08:38:21;;;;;;;13.50;12.20;;;22.70;99.90;;;;;;10248657;28;20233;-78
2023/09/10 08:43:30;;;;;;;16.50;11.30;;;22.80;99.90;;;;;;10299252;28;20594;-79
2023/09/10 08:48:35;;;;;;;11.93;10.83;;;22.90;99.90;;;;;;10252036;28;20231;-79
2023/09/10 08:53:40;;;;;;;11.13;10.23;;;22.90;99.90;;;;;;10249026;28;20225;-79
2023/09/10 08:58:44;;;;;;;12.60;11.30;;;23.00;99.90;;;;;;10249012;28;20598;-79
2023/09/10 09:03:47;;;;;;;10.80;9.90;;;23.10;99.90;;;;;;10251992;29;20251;-79
2023/09/10 09:08:52;;;;;;;12.83;11.00;;;23.20;99.90;;;;;;10251272;28;20233;-79
2023/09/10 09:13:57;;;;;;;10.30;9.30;;;23.20;99.90;;;;;;10248647;28;20225;-78
2023/09/10 09:19:09;;;;;;;9.60;8.67;;;23.30;99.90;;;;;;10315282;28;20236;-79
2023/09/10 09:24:14;;;;;;;11.00;9.90;;;23.40;99.90;;;;;;10314143;28;20197;-79
2023/09/10 09:29:16;;;;;;;9.03;8.23;;;23.50;99.90;;;;;;10248832;28;20229;-79
2023/09/10 09:34:20;;;;;;;16.97;9.00;;;23.60;99.90;;;;;;10247705;28;20224;-79
2023/09/10 09:39:22;;;;;;;9.37;8.57;;;23.60;99.90;;;;;;10246265;28;20275;-79
2023/09/10 09:44:24;;;;;;;11.17;10.17;;;23.70;99.90;;;;;;10314250;28;20229;-80
2023/09/10 09:49:27;;;;;;;9.70;8.73;;;24.00;99.90;;;;;;10315846;28;20229;-79
2023/09/10 09:54:29;;;;;;;8.13;7.53;;;24.20;99.90;;;;;;10248361;29;20592;-79
2023/09/10 09:59:35;;;;;;;8.33;7.60;;;24.50;99.90;;;;;;10249189;28;20229;-79
2023/09/10 10:04:40;;;;;;;9.20;8.40;;;24.90;99.90;;;;;;10249119;28;20259;-79
2023/09/10 10:09:43;;;;;;;8.97;8.10;;;25.10;99.90;;;;;;10313724;28;20734;-79
2023/09/10 10:14:46;;;;;;;9.77;8.90;;;25.10;99.90;;;;;;10247945;28;20213;-79
2023/09/10 10:19:51;;;;;;;8.00;7.40;;;25.00;99.90;;;;;;10317061;28;20245;-79
2023/09/10 10:24:54;;;;;;;8.53;7.87;;;24.90;99.90;;;;;;10312973;28;20308;-79
2023/09/10 10:29:56;;;;;;;9.60;8.60;;;24.80;99.90;;;;;;10255323;28;20233;-79
2023/09/10 10:35:04;;;;;;;11.53;8.70;;;24.70;99.90;;;;;;10262096;28;20300;-79
2023/09/10 10:40:11;;;;;;;11.40;10.13;;;24.70;99.90;;;;;;10261749;28;20304;-79
2023/09/10 10:45:17;;;;;;;8.20;7.40;;;24.70;99.90;;;;;;10328933;28;20197;-79
2023/09/10 10:50:26;;;;;;;8.50;7.70;;;24.70;99.90;;;;;;10262713;28;20295;-77
2023/09/10 10:55:28;;;;;;;10.60;9.50;;;24.60;99.90;;;;;;10262237;28;20718;-79
2023/09/10 11:00:31;;;;;;;8.77;7.97;;;24.70;99.90;;;;;;10319144;28;20252;-79
2023/09/10 11:06:05;;;;;;;8.93;8.13;;;24.70;99.90;;;;;;10250587;28;20214;-79
2023/09/10 11:11:08;;;;;;;8.60;7.67;;;24.60;99.90;;;;;;10250192;28;20680;-79
2023/09/10 11:16:17;;;;;;;8.60;7.90;;;24.60;99.90;;;;;;10315841;28;20251;-79
2023/09/10 11:21:21;;;;;;;8.27;7.37;;;24.60;99.90;;;;;;10250371;28;20275;-79
2023/09/10 11:26:30;;;;;;;11.30;8.80;;;24.70;99.90;;;;;;10249793;28;20209;-79
2023/09/10 11:31:41;;;;;;;11.03;8.00;;;24.70;99.90;;;;;;10313804;28;20324;-80
2023/09/10 11:36:46;;;;;;;9.03;8.00;;;24.80;99.90;;;;;;10255588;28;20201;-79
2023/09/10 11:41:50;;;;;;;8.03;7.23;;;24.80;99.90;;;;;;10321701;28;20244;-79
2023/09/10 11:46:53;;;;;;;7.97;7.17;;;24.80;99.90;;;;;;10256195;28;20202;-79
2023/09/10 11:51:57;;;;;;;9.70;8.70;;;24.90;99.90;;;;;;10254504;28;20253;-79
2023/09/10 11:57:00;;;;;;;8.93;8.20;;;24.90;99.90;;;;;;10255229;28;20194;-79
2023/09/10 12:02:03;;;;;;;8.63;7.80;;;25.00;99.90;;;;;;10233206;29;20228;-79
2023/09/10 12:07:07;;;;;;;9.77;8.77;;;25.10;99.90;;;;;;10321841;28;20520;-79
2023/09/10 12:12:15;;;;;;;8.63;7.83;;;25.10;99.90;;;;;;10253213;22;20238;-81
2023/09/10 12:17:17;;;;;;;9.90;8.90;;;25.10;99.90;;;;;;10207365;29;20673;-82
2023/09/10 12:22:21;;;;;;;9.37;8.40;;;25.00;99.90;;;;;;10219972;29;20210;-82
2023/09/10 12:27:23;;;;;;;10.67;8.23;;;25.00;99.90;;;;;;10218529;28;20218;-82
2023/09/10 12:32:25;;;;;;;9.47;8.67;;;25.00;99.90;;;;;;10221151;29;20229;-82
2023/09/10 12:37:29;;;;;;;9.53;8.67;;;25.00;99.90;;;;;;10222422;29;20689;-82
2023/09/10 12:42:31;;;;;;;8.20;7.57;;;25.00;99.90;;;;;;10222594;28;20232;-82
2023/09/10 12:47:34;;;;;;;10.23;9.10;;;25.10;99.90;;;;;;10217253;28;20232;-82
2023/09/10 12:52:38;;;;;;;9.27;8.47;;;25.20;99.60;;;;;;10283102;28;20292;-82
2023/09/10 12:57:40;;;;;;;7.73;7.10;;;25.30;99.80;;;;;;10210948;28;20214;-82
2023/09/10 13:02:47;;;;;;;14.33;8.30;;;25.40;99.30;;;;;;10284599;28;20222;-82
2023/09/10 13:07:51;;;;;;;9.30;8.40;;;25.40;99.10;;;;;;10218315;29;20513;-82
2023/09/10 13:12:53;;;;;;;8.60;7.37;;;25.40;99.90;;;;;;10217573;29;20240;-82
2023/09/10 13:17:55;;;;;;;8.13;7.43;;;25.30;99.10;;;;;;10222049;28;20210;-82
2023/09/10 13:23:00;;;;;;;13.70;8.17;;;25.30;99.00;;;;;;10236570;28;20218;-81
2023/09/10 13:28:03;;;;;;;7.80;6.80;;;25.30;98.70;;;;;;10304668;28;20236;-82
2023/09/10 13:33:05;;;;;;;8.10;7.37;;;25.40;98.70;;;;;;10295128;28;20325;-82
2023/09/10 13:38:09;;;;;;;8.63;7.20;;;25.30;99.00;;;;;;10216663;28;20201;-82
2023/09/10 13:43:11;;;;;;;7.87;6.83;;;25.30;98.20;;;;;;10215426;28;20275;-82
2023/09/10 13:48:13;;;;;;;7.90;6.50;;;25.40;98.50;;;;;;10204740;28;20290;-82
2023/09/10 13:53:16;;;;;;;8.03;7.33;;;25.30;98.30;;;;;;10189694;29;20763;-81
2023/09/10 13:58:20;;;;;;;8.03;7.40;;;25.40;98.20;;;;;;10214610;28;20228;-82
2023/09/10 14:03:26;;;;;;;7.40;6.80;;;25.40;98.90;;;;;;10218583;29;20229;-82
2023/09/10 14:08:29;;;;;;;7.37;6.77;;;25.40;97.70;;;;;;10217841;28;20229;-81
2023/09/10 14:13:31;;;;;;;8.77;7.97;;;25.50;97.90;;;;;;10217473;28;20265;-82
2023/09/10 14:18:34;;;;;;;7.30;6.50;;;25.50;96.90;;;;;;10281079;28;20206;-82
2023/09/10 14:23:37;;;;;;;11.57;8.10;;;25.60;97.60;;;;;;10280301;28;20297;-82
2023/09/10 14:28:39;;;;;;;7.57;6.87;;;25.60;97.80;;;;;;10216938;28;20280;-82
2023/09/10 14:33:42;;;;;;;7.00;6.50;;;25.50;98.30;;;;;;10204467;28;20226;-82
2023/09/10 14:38:45;;;;;;;6.67;6.07;;;25.40;99.20;;;;;;10179494;29;20223;-82
2023/09/10 14:43:47;;;;;;;6.80;6.30;;;25.40;99.60;;;;;;10184992;29;20268;-81
2023/09/10 14:48:50;;;;;;;7.50;6.80;;;25.40;99.00;;;;;;10214553;28;20313;-82
2023/09/10 14:53:54;;;;;;;7.33;6.70;;;25.60;99.00;;;;;;10217081;29;20221;-81
2023/09/10 14:58:56;;;;;;;7.43;6.73;;;26.00;97.70;;;;;;10291538;28;20260;-82
2023/09/10 15:03:58;;;;;;;6.70;6.20;;;26.10;97.70;;;;;;10280855;28;20198;-82
2023/09/10 15:09:02;;;;;;;7.40;6.80;;;26.10;97.00;;;;;;10215771;28;20298;-82
2023/09/10 15:14:04;;;;;;;7.30;6.80;;;26.10;96.60;;;;;;10220395;28;20224;-82
2023/09/10 15:19:06;;;;;;;8.60;7.90;;;26.10;96.80;;;;;;10211718;28;20226;-82
2023/09/10 15:24:09;;;;;;;10.60;7.00;;;26.00;98.00;;;;;;10213417;28;20202;-82
2023/09/10 15:29:11;;;;;;;7.40;6.70;;;25.80;97.40;;;;;;10217990;29;20608;-82
2023/09/10 15:34:14;;;;;;;8.07;7.27;;;25.80;97.50;;;;;;10212684;28;20294;-82
2023/09/10 15:39:18;;;;;;;7.37;6.77;;;25.80;97.40;;;;;;10255728;28;20308;-82
2023/09/10 15:44:20;;;;;;;7.43;6.77;;;25.80;96.40;;;;;;10186778;28;20229;-82
2023/09/10 15:49:25;;;;;;;7.33;6.73;;;25.80;97.40;;;;;;10284675;28;20248;-82
2023/09/10 15:54:29;;;;;;;7.77;6.40;;;25.70;98.40;;;;;;10284161;28;20224;-82
2023/09/10 15:59:31;;;;;;;8.10;6.20;;;25.60;97.50;;;;;;10223476;28;20317;-82
2023/09/10 16:04:33;;;;;;;8.13;6.57;;;25.60;98.60;;;;;;10219084;28;20205;-82
2023/09/10 16:09:37;;;;;;;9.23;6.27;;;25.50;98.10;;;;;;10213666;29;20234;-81
2023/09/10 16:14:39;;;;;;;7.77;7.17;;;25.50;98.20;;;;;;10190352;29;20310;-82
2023/09/10 16:19:41;;;;;;;7.80;7.10;;;25.40;99.20;;;;;;10259139;28;20564;-82
2023/09/10 16:24:45;;;;;;;7.07;6.47;;;25.30;99.70;;;;;;10248724;28;20199;-81
2023/09/10 16:29:48;;;;;;;6.87;6.27;;;25.20;98.70;;;;;;10282905;28;20214;-82
2023/09/10 16:34:50;;;;;;;7.50;6.83;;;25.30;98.10;;;;;;10214621;28;20223;-82
2023/09/10 16:39:53;;;;;;;7.73;6.83;;;25.40;98.40;;;;;;10198956;29;20221;-82
2023/09/10 16:44:56;;;;;;;6.97;6.33;;;25.30;98.30;;;;;;10247373;28;20322;-82
2023/09/10 16:49:58;;;;;;;8.20;7.40;;;25.30;98.60;;;;;;10217797;28;20229;-82
2023/09/10 16:55:02;;;;;;;6.63;6.13;;;25.30;97.60;;;;;;10216335;28;20237;-82
2023/09/10 17:00:05;;;;;;;7.40;6.70;;;25.40;98.20;;;;;;10202682;28;20230;-82
2023/09/10 17:05:09;;;;;;;10.53;8.03;;;25.40;98.20;;;;;;10218309;28;20682;-82
2023/09/10 17:10:13;;;;;;;8.57;7.50;;;25.30;98.00;;;;;;10283562;28;20240;-82
2023/09/10 17:15:15;;;;;;;7.80;7.10;;;25.30;98.80;;;;;;10249272;28;20222;-82
2023/09/10 17:20:17;;;;;;;7.37;6.77;;;25.30;98.50;;;;;;10218922;28;20222;-82
2023/09/10 17:25:21;;;;;;;8.10;7.40;;;25.30;98.80;;;;;;10219014;28;20202;-82
2023/09/10 17:30:26;;;;;;;10.70;9.80;;;25.30;99.10;;;;;;10217431;28;20237;-82
2023/09/10 17:35:28;;;;;;;7.50;6.90;;;25.20;99.30;;;;;;10219597;28;20293;-82
2023/09/10 17:40:32;;;;;;;8.33;7.63;;;25.10;99.50;;;;;;10209538;29;20242;-82
2023/09/10 17:45:34;;;;;;;8.40;7.20;;;25.00;99.70;;;;;;10193624;29;20190;-82
2023/09/10 17:50:36;;;;;;;9.93;7.90;;;24.80;99.90;;;;;;10185149;28;20253;-82
2023/09/10 17:55:40;;;;;;;9.63;8.70;;;24.70;99.90;;;;;;10179448;28;20584;-82
2023/09/10 18:00:42;;;;;;;8.43;7.67;;;24.60;99.90;;;;;;10215657;28;20782;-82
2023/09/10 18:05:44;;;;;;;8.50;7.20;;;24.50;99.90;;;;;;10217100;28;20198;-82
2023/09/10 18:10:49;;;;;;;10.30;7.27;;;24.40;99.90;;;;;;10271120;28;20233;-82
2023/09/10 18:15:52;;;;;;;8.10;7.30;;;24.30;99.90;;;;;;10282636;28;20256;-82
2023/09/10 18:20:54;;;;;;;8.57;7.80;;;24.30;99.90;;;;;;10215720;29;20230;-82
2023/09/10 18:25:57;;;;;;;10.27;8.23;;;24.20;99.90;;;;;;10217088;29;20726;-82
2023/09/10 18:31:03;;;;;;;8.80;7.80;;;24.10;99.90;;;;;;10214799;29;20265;-82
2023/09/10 18:36:06;;;;;;;8.67;7.97;;;24.00;99.90;;;;;;10216732;29;20576;-82
2023/09/10 18:41:09;;;;;;;9.80;7.90;;;24.00;99.90;;;;;;10281422;28;20222;-82
2023/09/10 18:46:11;;;;;;;8.53;7.73;;;23.90;99.90;;;;;;10184590;28;20203;-82
2023/09/10 18:51:13;;;;;;;9.07;7.90;;;23.90;99.90;;;;;;10213232;29;20222;-81
2023/09/10 18:56:17;;;;;;;8.97;8.10;;;23.90;99.90;;;;;;10221748;28;20234;-82
2023/09/10 19:01:21;;;;;;;8.70;7.90;;;23.90;99.90;;;;;;10287657;28;20230;-82
2023/09/10 19:06:23;;;;;;;7.80;7.00;;;23.80;99.90;;;;;;10222339;29;20201;-82
2023/09/10 19:11:27;;;;;;;10.20;6.80;;;23.70;99.90;;;;;;10217222;28;20249;-81
2023/09/10 19:16:29;;;;;;;8.67;7.97;;;23.70;99.90;;;;;;10305069;28;20233;-82
2023/09/10 19:21:31;;;;;;;9.33;6.63;;;23.60;99.90;;;;;;10287267;28;20224;-82
2023/09/10 19:26:34;;;;;;;7.17;6.57;;;23.60;99.90;;;;;;10221964;28;20198;-82
2023/09/10 19:31:36;;;;;;;8.50;6.87;;;23.60;99.90;;;;;;10222874;28;20232;-81
2023/09/10 19:36:39;;;;;;;7.20;6.50;;;23.50;99.90;;;;;;10255457;28;20234;-82
2023/09/10 19:41:42;;;;;;;7.30;6.60;;;23.50;99.80;;;;;;10278435;28;20306;-82
2023/09/10 19:46:44;;;;;;;6.87;6.37;;;23.40;99.70;;;;;;10214459;28;20615;-81
2023/09/10 19:51:47;;;;;;;6.90;6.20;;;23.40;99.60;;;;;;10211688;28;20222;-82
2023/09/10 19:56:51;;;;;;;6.67;6.07;;;23.40;99.70;;;;;;10214809;29;20225;-81
2023/09/10 20:01:54;;;;;;;7.90;7.20;;;23.30;99.60;;;;;;10220981;28;20675;-81
2023/09/10 20:07:00;;;;;;;7.23;6.00;;;23.20;99.60;;;;;;10253507;28;20203;-80
2023/09/10 20:12:03;;;;;;;7.93;7.30;;;23.20;99.90;;;;;;10279492;28;20261;-81
2023/09/10 20:17:06;;;;;;;8.10;7.00;;;23.20;99.40;;;;;;10221084;29;20257;-82
2023/09/10 20:22:08;;;;;;;7.50;6.90;;;23.10;99.70;;;;;;10221437;28;20601;-82
2023/09/10 20:27:12;;;;;;;7.70;6.90;;;23.10;99.90;;;;;;10201996;28;20211;-81
2023/09/10 20:32:14;;;;;;;9.70;6.43;;;23.00;99.90;;;;;;10223449;29;20595;-82
2023/09/10 20:37:17;;;;;;;7.90;7.20;;;23.00;99.90;;;;;;10221152;29;20250;-81
2023/09/10 20:42:20;;;;;;;7.93;7.13;;;22.90;99.90;;;;;;10194349;29;20222;-82
2023/09/10 20:47:23;;;;;;;7.70;7.00;;;22.90;99.90;;;;;;10195022;28;20212;-82
2023/09/10 20:52:25;;;;;;;7.13;6.50;;;22.90;99.90;;;;;;10216778;28;20229;-82
2023/09/10 20:57:28;;;;;;;7.40;6.80;;;22.80;99.90;;;;;;10191119;28;20233;-82
2023/09/10 21:02:30;;;;;;;6.67;6.07;;;22.80;99.80;;;;;;10227915;29;20286;-81
2023/09/10 21:07:35;;;;;;;7.17;6.47;;;22.80;99.60;;;;;;10224832;28;20209;-82
2023/09/10 21:12:39;;;;;;;7.87;7.17;;;22.70;99.60;;;;;;10299366;28;20241;-82
2023/09/10 21:17:41;;;;;;;9.67;7.50;;;22.70;99.40;;;;;;10188909;28;20199;-81
2023/09/10 21:22:43;;;;;;;6.97;6.30;;;22.70;99.50;;;;;;10261835;28;20215;-82
2023/09/10 21:27:46;;;;;;;7.13;6.60;;;22.70;99.60;;;;;;10205780;29;20202;-82
2023/09/10 21:32:49;;;;;;;7.70;6.90;;;22.70;99.70;;;;;;10283134;28;20615;-82
2023/09/10 21:37:51;;;;;;;8.47;7.13;;;22.60;99.70;;;;;;10265589;28;20205;-81
2023/09/10 21:42:54;;;;;;;7.43;6.80;;;22.60;99.70;;;;;;10265906;28;20236;-82
2023/09/10 21:47:56;;;;;;;9.33;6.57;;;22.50;99.60;;;;;;10219035;29;20205;-82
2023/09/10 21:52:59;;;;;;;7.27;6.53;;;22.50;99.70;;;;;;10220289;29;20230;-81
2023/09/10 21:58:02;;;;;;;7.70;6.90;;;22.50;99.90;;;;;;10219279;28;20289;-82
2023/09/10 22:03:05;;;;;;;7.27;6.57;;;22.50;99.90;;;;;;10215517;29;20570;-82
2023/09/10 22:08:07;;;;;;;7.20;6.60;;;22.40;99.90;;;;;;10214827;29;20198;-82
2023/09/10 22:13:17;;;;;;;6.97;6.27;;;22.40;99.90;;;;;;10280377;28;20221;-81
2023/09/10 22:18:20;;;;;;;7.60;7.00;;;22.30;99.90;;;;;;10280262;28;20651;-81
2023/09/10 22:23:22;;;;;;;6.70;6.20;;;22.30;99.90;;;;;;10215170;28;20226;-82
2023/09/10 22:28:26;;;;;;;7.60;6.90;;;22.30;99.90;;;;;;10215561;28;20209;-82
2023/09/10 22:33:28;;;;;;;7.03;6.53;;;22.20;99.90;;;;;;10215460;29;20225;-81
2023/09/10 22:38:30;;;;;;;7.43;6.93;;;22.20;99.90;;;;;;10190460;28;20257;-81
2023/09/10 22:43:33;;;;;;;8.03;7.20;;;22.10;99.90;;;;;;10186228;28;20198;-82
2023/09/10 22:48:35;;;;;;;7.80;7.10;;;22.10;99.90;;;;;;10182921;29;20656;-81
2023/09/10 22:53:37;;;;;;;7.67;6.47;;;22.00;99.90;;;;;;10183151;29;20284;-82
2023/09/10 22:58:41;;;;;;;7.20;6.40;;;22.00;99.90;;;;;;10198955;29;20206;-81
2023/09/10 23:03:44;;;;;;;8.00;7.30;;;22.00;99.90;;;;;;10213778;29;20209;-81
2023/09/10 23:08:46;;;;;;;8.07;6.53;;;22.00;99.90;;;;;;10215786;28;20225;-82
2023/09/10 23:13:49;;;;;;;7.83;7.23;;;21.90;99.90;;;;;;10213470;28;20299;-82
2023/09/10 23:18:51;;;;;;;7.87;7.07;;;21.90;99.90;;;;;;10217093;29;20224;-82
2023/09/10 23:23:53;;;;;;;8.23;7.57;;;21.90;99.90;;;;;;10210674;28;20197;-82
2023/09/10 23:28:57;;;;;;;8.03;7.23;;;21.90;99.90;;;;;;10207887;28;20233;-82
2023/09/10 23:33:59;;;;;;;7.90;7.17;;;21.80;99.90;;;;;;10220409;29;20221;-82
2023/09/10 23:39:01;;;;;;;8.63;7.83;;;21.90;99.90;;;;;;10198589;29;20222;-82
2023/09/10 23:44:04;;;;;;;8.03;7.33;;;21.80;99.90;;;;;;10249481;28;20195;-82
2023/09/10 23:49:07;;;;;;;8.27;7.47;;;21.90;99.90;;;;;;10180873;28;20226;-82
2023/09/10 23:54:09;;;;;;;7.80;7.10;;;21.80;99.90;;;;;;10181904;29;20218;-81
2023/09/10 23:59:13;;;;;;;8.20;7.43;;;21.80;99.90;;;;;;10204190;28;20235;-81
